Terminal Aerodrome Forecast
Issued by NWS Shreveport, LA

Home | Current Version | Previous Version | Text Only | Print | Product List | Glossary On
Versions: 1 2 3 4 5 6 7 8 9 10 11 12 13 14 15
000
FTUS44 KSHV 260528
TAFELD
TAF
KELD 260528Z 2606/2706 16012G18KT P6SM SCT025 OVC040
      TEMPO 2608/2612 OVC015
     FM261200 16010KT P6SM OVC010
     FM261500 17013G23KT P6SM OVC020
     FM261700 17015G25KT P6SM OVC030
     FM262100 18016G26KT P6SM VCTS OVC030CB
      TEMPO 2622/2702 VRB20G40KT 1SM +TSRA BR OVC015CB
     FM270300 30012KT P6SM OVC015=

USA.gov is the U.S. government's official web portal to all federal, state and local government web resources and services.